createdAt,value
2023-05-25T00:01:37.944Z,12.80
2023-05-25T00:04:05.046Z,9.70
2023-05-25T00:06:33.106Z,11.55
2023-05-25T00:09:00.053Z,10.35
2023-05-25T00:11:27.619Z,11.20
2023-05-25T00:13:54.855Z,13.63
2023-05-25T00:16:21.858Z,9.30
2023-05-25T00:18:48.893Z,9.15
2023-05-25T00:21:16.407Z,10.38
2023-05-25T00:23:44.251Z,10.70
2023-05-25T00:26:11.314Z,11.20
2023-05-25T00:28:38.388Z,11.18
2023-05-25T00:31:05.387Z,12.60
2023-05-25T00:33:32.541Z,12.40
2023-05-25T00:36:00.268Z,12.93
2023-05-25T00:38:27.293Z,10.77
2023-05-25T00:40:57.352Z,10.68
2023-05-25T00:43:24.159Z,11.32
2023-05-25T00:45:51.819Z,11.23
2023-05-25T00:48:19.149Z,13.85
2023-05-25T00:50:46.715Z,14.88
2023-05-25T00:53:14.634Z,10.60
2023-05-25T00:55:54.883Z,10.65
2023-05-25T00:58:22.349Z,12.98
2023-05-25T01:00:53.563Z,11.70
2023-05-25T01:03:22.624Z,12.27
2023-05-25T01:05:51.406Z,12.65
2023-05-25T01:08:22.456Z,12.13
2023-05-25T01:10:51.581Z,10.63
2023-05-25T01:13:20.198Z,10.77
2023-05-25T01:15:48.400Z,11.45
2023-05-25T01:18:16.072Z,10.70
2023-05-25T01:20:57.307Z,11.98
2023-05-25T01:23:30.288Z,11.75
2023-05-25T01:26:02.653Z,10.65
2023-05-25T01:28:35.074Z,13.90
2023-05-25T01:31:03.432Z,13.07
2023-05-25T01:33:32.103Z,9.20
2023-05-25T01:36:00.838Z,11.25
2023-05-25T01:38:28.020Z,10.43
2023-05-25T01:40:54.870Z,10.73
2023-05-25T01:43:22.731Z,10.35
2023-05-25T01:45:50.839Z,13.63
2023-05-25T01:48:40.963Z,11.20
2023-05-25T01:51:45.095Z,14.77
2023-05-25T01:54:20.770Z,9.75
2023-05-25T01:56:51.005Z,10.75
2023-05-25T01:59:21.783Z,12.90
2023-05-25T02:01:52.160Z,9.65
2023-05-25T02:04:22.198Z,11.30
2023-05-25T02:06:51.716Z,9.20
2023-05-25T02:09:18.613Z,12.63
2023-05-25T02:11:45.796Z,10.90
2023-05-25T02:14:13.445Z,9.52
2023-05-25T02:16:40.395Z,10.05
2023-05-25T02:19:07.355Z,12.70
2023-05-25T02:21:36.452Z,11.57
2023-05-25T02:24:03.743Z,13.73
2023-05-25T02:26:30.837Z,10.35
2023-05-25T02:28:57.754Z,10.35
2023-05-25T02:31:24.631Z,11.70
2023-05-25T02:33:51.617Z,12.32
2023-05-25T02:36:18.565Z,11.27
2023-05-25T02:38:47.594Z,16.80
2023-05-25T02:41:16.382Z,11.65
2023-05-25T02:43:43.332Z,12.68
2023-05-25T02:46:10.502Z,12.68
2023-05-25T02:48:37.526Z,8.63
2023-05-25T02:51:05.110Z,9.88
2023-05-25T02:53:34.441Z,14.88
2023-05-25T02:56:02.417Z,12.02
2023-05-25T02:58:29.347Z,10.52
2023-05-25T03:00:56.376Z,7.82
2023-05-25T03:03:23.396Z,13.45
2023-05-25T03:05:50.717Z,13.32
2023-05-25T03:08:17.985Z,10.23
2023-05-25T03:10:45.493Z,13.32
2023-05-25T03:13:12.464Z,11.30
2023-05-25T03:15:40.301Z,11.48
2023-05-25T03:18:07.648Z,12.07
2023-05-25T03:20:35.013Z,9.93
2023-05-25T03:23:02.276Z,9.80
2023-05-25T03:25:29.358Z,10.23
2023-05-25T03:27:56.380Z,12.65
2023-05-25T03:30:23.717Z,11.95
2023-05-25T03:32:50.852Z,9.80
2023-05-25T03:35:17.901Z,9.40
2023-05-25T03:37:44.862Z,11.45
2023-05-25T03:40:12.134Z,11.80
2023-05-25T03:42:39.263Z,10.63
2023-05-25T03:45:09.161Z,13.48
2023-05-25T03:47:36.943Z,11.88
2023-05-25T03:50:04.909Z,9.43
2023-05-25T03:52:31.796Z,13.38
2023-05-25T03:54:58.974Z,16.30
2023-05-25T03:57:25.764Z,9.75
2023-05-25T03:59:52.658Z,13.90
2023-05-25T04:02:19.594Z,12.60
2023-05-25T04:04:46.546Z,10.70
2023-05-25T04:07:13.460Z,11.88
2023-05-25T04:09:40.417Z,12.73
2023-05-25T04:12:07.440Z,11.20
2023-05-25T04:14:34.308Z,13.05
2023-05-25T04:17:01.216Z,9.88
2023-05-25T04:19:28.150Z,13.48
2023-05-25T04:21:55.311Z,11.35
2023-05-25T04:24:22.592Z,16.38
2023-05-25T04:26:50.345Z,11.43
2023-05-25T04:29:17.578Z,11.57
2023-05-25T04:31:46.157Z,9.82
2023-05-25T04:34:15.428Z,11.98
2023-05-25T04:36:43.629Z,10.82
2023-05-25T04:39:10.683Z,14.55
2023-05-25T04:41:37.856Z,11.65
2023-05-25T04:44:09.774Z,11.88
2023-05-25T04:46:37.727Z,12.05
2023-05-25T04:49:14.230Z,12.52
2023-05-25T04:51:41.405Z,11.05
2023-05-25T04:54:08.436Z,13.68
2023-05-25T04:56:35.698Z,11.27
2023-05-25T04:59:04.326Z,10.93
2023-05-25T05:01:31.547Z,10.25
2023-05-25T05:03:58.605Z,10.18
2023-05-25T05:06:25.933Z,11.35
2023-05-25T05:08:53.059Z,10.65
2023-05-25T05:11:20.018Z,12.05
2023-05-25T05:13:46.853Z,9.95
2023-05-25T05:16:13.788Z,11.63
2023-05-25T05:18:40.897Z,11.75
2023-05-25T05:21:07.715Z,11.65
2023-05-25T05:23:34.865Z,13.82
2023-05-25T05:26:01.980Z,11.98
2023-05-25T05:28:29.893Z,12.88
2023-05-25T05:30:56.905Z,10.05
2023-05-25T05:33:27.036Z,9.85
2023-05-25T05:35:54.785Z,13.27
2023-05-25T05:38:21.736Z,13.27
2023-05-25T05:40:48.726Z,12.93
2023-05-25T05:43:15.705Z,11.70
2023-05-25T05:45:42.944Z,10.98
2023-05-25T05:48:10.043Z,11.82
2023-05-25T05:50:40.348Z,13.23
2023-05-25T05:53:10.079Z,14.75
2023-05-25T05:55:37.507Z,11.23
2023-05-25T05:58:04.470Z,14.02
2023-05-25T06:00:31.992Z,14.07
2023-05-25T06:03:00.740Z,13.65
2023-05-25T06:05:27.974Z,13.52
2023-05-25T06:07:54.878Z,13.40
2023-05-25T06:10:22.032Z,12.75
2023-05-25T06:12:48.912Z,14.55
2023-05-25T06:15:16.147Z,13.55
2023-05-25T06:17:43.367Z,13.07
2023-05-25T06:20:11.012Z,14.52
2023-05-25T06:22:37.967Z,16.95
2023-05-25T06:25:05.160Z,14.45
2023-05-25T06:27:32.081Z,13.63
2023-05-25T06:29:58.877Z,14.13
2023-05-25T06:32:25.836Z,16.58
2023-05-25T06:34:52.723Z,14.82
2023-05-25T06:37:19.692Z,17.08
2023-05-25T06:39:46.522Z,17.83
2023-05-25T06:42:13.364Z,14.90
2023-05-25T06:44:40.330Z,13.80
2023-05-25T06:47:07.436Z,14.95
2023-05-25T06:49:34.284Z,15.07
2023-05-25T06:52:01.526Z,13.10
2023-05-25T06:54:28.374Z,16.15
2023-05-25T06:56:55.194Z,14.57
2023-05-25T06:59:23.434Z,11.02
2023-05-25T07:01:50.600Z,12.57
2023-05-25T07:04:17.562Z,12.77
2023-05-25T07:06:44.554Z,13.27
2023-05-25T07:09:11.826Z,14.98
2023-05-25T07:11:38.598Z,16.40
2023-05-25T07:14:06.012Z,13.48
2023-05-25T07:16:33.271Z,11.57
2023-05-25T07:19:00.648Z,10.00
2023-05-25T07:21:27.872Z,13.60
2023-05-25T07:23:54.717Z,15.20
2023-05-25T07:26:23.067Z,12.30
2023-05-25T07:28:49.877Z,12.05
2023-05-25T07:31:17.738Z,15.05
2023-05-25T07:33:44.996Z,11.43
2023-05-25T07:36:12.656Z,10.82
2023-05-25T07:38:39.990Z,11.48
2023-05-25T07:41:07.052Z,10.68
2023-05-25T07:43:34.040Z,12.88
2023-05-25T07:46:02.544Z,11.45
2023-05-25T07:48:29.437Z,14.68
2023-05-25T07:50:56.560Z,10.82
2023-05-25T07:53:23.564Z,12.13
2023-05-25T07:55:50.955Z,12.52
2023-05-25T07:58:17.856Z,14.10
2023-05-25T08:00:44.764Z,14.77
2023-05-25T08:03:12.322Z,14.25
2023-05-25T08:05:39.993Z,12.57
2023-05-25T08:08:06.928Z,17.95
2023-05-25T08:10:33.851Z,14.10
2023-05-25T08:13:00.785Z,14.85
2023-05-25T08:15:27.849Z,11.02
2023-05-25T08:17:56.518Z,12.00
2023-05-25T08:20:25.253Z,12.52
2023-05-25T08:22:53.807Z,11.48
2023-05-25T08:25:20.982Z,14.50
2023-05-25T08:27:48.375Z,15.43
2023-05-25T08:30:15.301Z,10.90
2023-05-25T08:32:42.393Z,7.70
2023-05-25T08:35:10.108Z,8.00
2023-05-25T08:37:37.740Z,8.75
2023-05-25T08:40:06.235Z,10.98
2023-05-25T08:42:33.276Z,7.53
2023-05-25T08:45:00.281Z,7.63
2023-05-25T08:47:32.429Z,7.25
2023-05-25T08:50:01.597Z,8.15
2023-05-25T08:52:33.506Z,11.90
2023-05-25T08:55:04.927Z,8.05
2023-05-25T08:57:40.240Z,11.80
2023-05-25T09:00:10.987Z,10.02
2023-05-25T09:02:56.264Z,9.55
2023-05-25T09:05:24.484Z,10.73
2023-05-25T09:07:54.921Z,9.13
2023-05-25T09:10:23.477Z,10.20
2023-05-25T09:12:52.060Z,8.90
2023-05-25T09:15:19.355Z,10.23
2023-05-25T09:17:46.274Z,10.65
2023-05-25T09:20:16.361Z,9.68
2023-05-25T09:22:44.422Z,11.02
2023-05-25T09:25:13.443Z,9.82
2023-05-25T09:27:42.202Z,10.32
2023-05-25T09:30:09.489Z,12.85
2023-05-25T09:32:36.488Z,12.07
2023-05-25T09:35:13.879Z,7.45
2023-05-25T09:37:42.210Z,8.85
2023-05-25T09:40:14.818Z,8.23
2023-05-25T09:42:42.944Z,9.93
2023-05-25T09:45:10.184Z,10.00
2023-05-25T09:47:38.417Z,9.57
2023-05-25T09:50:05.972Z,9.93
2023-05-25T09:52:32.874Z,9.32
2023-05-25T09:55:01.949Z,9.55
2023-05-25T09:57:28.953Z,7.35
2023-05-25T09:59:56.927Z,10.20
2023-05-25T10:02:23.791Z,8.98
2023-05-25T10:04:50.691Z,11.40
2023-05-25T10:07:17.911Z,10.40
2023-05-25T10:09:46.542Z,8.95
2023-05-25T10:12:17.615Z,9.68
2023-05-25T10:14:46.204Z,9.50
2023-05-25T10:17:17.845Z,10.50
2023-05-25T10:19:58.296Z,8.85
2023-05-25T10:22:33.843Z,7.47
2023-05-25T10:25:10.141Z,8.85
2023-05-25T10:27:41.755Z,9.95
2023-05-25T10:30:13.942Z,9.18
2023-05-25T10:32:42.609Z,9.20
2023-05-25T10:35:10.396Z,9.02
2023-05-25T10:37:38.469Z,8.93
2023-05-25T10:40:08.681Z,8.90
2023-05-25T10:42:39.547Z,7.93
2023-05-25T10:45:08.308Z,8.23
2023-05-25T10:47:43.385Z,8.43
2023-05-25T10:50:24.683Z,7.38
2023-05-25T10:53:07.212Z,11.75
2023-05-25T10:56:05.324Z,11.05
2023-05-25T10:58:33.620Z,7.97
2023-05-25T11:01:09.028Z,9.57
2023-05-25T11:03:45.624Z,11.20
2023-05-25T11:06:15.384Z,8.48
2023-05-25T11:08:56.059Z,8.95
2023-05-25T11:11:44.595Z,10.57
2023-05-25T11:14:21.414Z,9.80
2023-05-25T11:17:11.735Z,9.35
2023-05-25T11:20:02.615Z,12.10
2023-05-25T11:22:37.555Z,12.45
2023-05-25T11:25:37.119Z,20.02
2023-05-25T11:28:07.246Z,13.15
2023-05-25T11:30:34.761Z,12.10
2023-05-25T11:33:04.743Z,12.00
2023-05-25T11:35:33.818Z,10.88
2023-05-25T11:38:01.285Z,13.05
2023-05-25T11:40:31.458Z,13.30
2023-05-25T11:43:00.810Z,17.50
2023-05-25T11:45:33.501Z,23.73
2023-05-25T11:48:00.617Z,15.43
2023-05-25T11:50:28.389Z,19.40
2023-05-25T11:52:55.531Z,20.83
2023-05-25T11:55:22.857Z,19.52
2023-05-25T11:57:56.873Z,18.40
2023-05-25T12:00:29.790Z,17.73
2023-05-25T12:02:57.715Z,15.37
2023-05-25T12:05:24.896Z,14.80
2023-05-25T12:07:52.203Z,20.92
2023-05-25T12:10:19.287Z,15.13
2023-05-25T12:12:47.248Z,16.00
2023-05-25T12:15:19.758Z,18.60
2023-05-25T12:17:48.533Z,21.73
2023-05-25T12:20:17.109Z,21.80
2023-05-25T12:22:45.339Z,19.30
2023-05-25T12:25:13.932Z,22.42
2023-05-25T12:27:41.354Z,21.00
2023-05-25T12:30:10.571Z,20.75
2023-05-25T12:33:03.783Z,25.02
2023-05-25T12:35:46.246Z,23.25
2023-05-25T12:38:18.101Z,24.67
2023-05-25T12:40:45.485Z,21.65
2023-05-25T12:43:13.415Z,19.77
2023-05-25T12:45:43.814Z,22.98
2023-05-25T12:48:10.855Z,19.35
2023-05-25T12:50:38.243Z,20.63
2023-05-25T12:53:05.338Z,21.88
2023-05-25T12:55:34.373Z,17.00
2023-05-25T12:58:03.597Z,21.75
2023-05-25T13:00:40.170Z,17.42
2023-05-25T13:03:07.982Z,20.75
2023-05-25T13:05:37.168Z,20.60
2023-05-25T13:08:05.395Z,22.98
2023-05-25T13:10:33.540Z,17.45
2023-05-25T13:13:00.964Z,16.58
2023-05-25T13:15:29.501Z,20.30
2023-05-25T13:18:00.298Z,24.60
2023-05-25T13:20:30.227Z,20.95
2023-05-25T13:22:57.410Z,18.52
2023-05-25T13:25:27.424Z,18.10
2023-05-25T13:27:56.948Z,18.35
2023-05-25T13:30:23.900Z,15.48
2023-05-25T13:32:52.852Z,18.85
2023-05-25T13:35:37.372Z,13.90
2023-05-25T13:38:04.522Z,13.82
2023-05-25T13:40:33.847Z,19.35
2023-05-25T13:43:00.670Z,18.20
2023-05-25T13:45:27.709Z,15.95
2023-05-25T13:47:54.891Z,18.25
2023-05-25T13:50:22.098Z,15.40
2023-05-25T13:52:50.344Z,18.05
2023-05-25T13:55:17.456Z,15.32
2023-05-25T13:57:44.533Z,18.52
2023-05-25T14:00:12.010Z,16.80
2023-05-25T14:02:38.969Z,17.13
2023-05-25T14:05:06.227Z,21.58
2023-05-25T14:07:33.182Z,17.45
2023-05-25T14:10:00.372Z,18.00
2023-05-25T14:12:27.741Z,17.65
2023-05-25T14:14:54.800Z,16.60
2023-05-25T14:17:21.755Z,18.30
2023-05-25T14:19:48.675Z,18.30
2023-05-25T14:22:16.012Z,22.10
2023-05-25T14:24:42.989Z,15.65
2023-05-25T14:27:10.189Z,16.25
2023-05-25T14:29:37.583Z,17.02
2023-05-25T14:32:04.915Z,16.52
2023-05-25T14:34:31.833Z,17.98
2023-05-25T14:36:58.666Z,18.50
2023-05-25T14:39:25.809Z,18.95
2023-05-25T14:41:52.650Z,19.05
2023-05-25T14:44:19.560Z,21.75
2023-05-25T14:46:46.625Z,23.40
2023-05-25T14:49:13.923Z,17.80
2023-05-25T14:51:40.875Z,20.08
2023-05-25T14:54:08.027Z,21.38
2023-05-25T14:56:35.158Z,19.52
2023-05-25T14:59:02.107Z,25.17
2023-05-25T15:01:29.578Z,17.73
2023-05-25T15:03:56.940Z,19.38
2023-05-25T15:06:25.085Z,22.45
2023-05-25T15:08:51.992Z,20.80
2023-05-25T15:11:18.968Z,21.23
2023-05-25T15:13:46.540Z,17.73
2023-05-25T15:16:14.452Z,21.15
2023-05-25T15:18:41.526Z,21.50
2023-05-25T15:21:08.586Z,20.65
2023-05-25T15:23:35.821Z,18.65
2023-05-25T15:26:07.802Z,17.30
2023-05-25T15:28:35.095Z,19.42
2023-05-25T15:31:03.328Z,19.25
2023-05-25T15:33:48.370Z,18.65
2023-05-25T15:36:16.978Z,17.83
2023-05-25T15:38:45.038Z,15.57
2023-05-25T15:41:16.051Z,16.50
2023-05-25T15:43:49.944Z,16.13
2023-05-25T15:46:16.943Z,16.20
2023-05-25T15:48:43.886Z,16.20
2023-05-25T15:51:11.155Z,15.30
2023-05-25T15:53:38.168Z,15.88
2023-05-25T15:56:06.481Z,15.43
2023-05-25T15:58:34.483Z,14.40
2023-05-25T16:01:01.747Z,15.07
2023-05-25T16:03:29.435Z,13.02
2023-05-25T16:05:56.886Z,13.40
2023-05-25T16:08:23.928Z,12.50
2023-05-25T16:10:51.013Z,14.77
2023-05-25T16:13:18.008Z,15.95
2023-05-25T16:15:45.314Z,13.57
2023-05-25T16:18:12.379Z,13.60
2023-05-25T16:20:39.374Z,15.50
2023-05-25T16:23:06.910Z,12.27
2023-05-25T16:25:35.423Z,14.85
2023-05-25T16:28:02.376Z,13.35
2023-05-25T16:30:29.411Z,11.85
2023-05-25T16:32:56.374Z,10.93
2023-05-25T16:35:23.237Z,12.45
2023-05-25T16:37:50.081Z,10.77
2023-05-25T16:40:16.965Z,12.88
2023-05-25T16:42:44.003Z,11.07
2023-05-25T16:45:11.166Z,12.65
2023-05-25T16:47:38.057Z,11.07
2023-05-25T16:50:06.297Z,11.43
2023-05-25T16:52:34.861Z,12.32
2023-05-25T16:55:01.985Z,10.93
2023-05-25T16:57:30.292Z,12.60
2023-05-25T16:59:57.267Z,11.38
2023-05-25T17:02:24.467Z,11.02
2023-05-25T17:04:54.628Z,11.95
2023-05-25T17:07:21.998Z,11.50
2023-05-25T17:09:48.906Z,12.40
2023-05-25T17:12:16.641Z,11.65
2023-05-25T17:14:43.555Z,11.00
2023-05-25T17:17:11.358Z,16.00
2023-05-25T17:19:38.376Z,12.18
2023-05-25T17:22:05.525Z,13.15
2023-05-25T17:24:33.109Z,15.57
2023-05-25T17:27:01.867Z,11.60
2023-05-25T17:29:30.934Z,12.98
2023-05-25T17:31:57.987Z,12.27
2023-05-25T17:34:24.991Z,11.10
2023-05-25T17:36:52.199Z,11.65
2023-05-25T17:39:19.182Z,15.43
2023-05-25T17:41:47.686Z,13.85
2023-05-25T17:44:15.036Z,13.68
2023-05-25T17:46:43.438Z,13.27
2023-05-25T17:49:10.648Z,11.40
2023-05-25T17:51:40.448Z,12.23
2023-05-25T17:54:07.661Z,14.45
2023-05-25T17:56:35.244Z,13.93
2023-05-25T17:59:03.767Z,12.90
2023-05-25T18:01:33.456Z,17.55
2023-05-25T18:04:01.184Z,36.33
2023-05-25T18:06:29.280Z,15.30
2023-05-25T18:08:59.032Z,16.48
2023-05-25T18:11:28.342Z,18.27
2023-05-25T18:13:56.964Z,16.65
2023-05-25T18:16:23.954Z,15.32
2023-05-25T18:18:51.048Z,13.63
2023-05-25T18:21:18.091Z,15.95
2023-05-25T18:23:45.266Z,16.05
2023-05-25T18:26:13.278Z,19.35
2023-05-25T18:28:40.191Z,15.43
2023-05-25T18:31:08.801Z,20.40
2023-05-25T18:33:35.886Z,18.20
2023-05-25T18:36:02.936Z,17.17
2023-05-25T18:38:29.844Z,18.60
2023-05-25T18:40:56.870Z,14.90
2023-05-25T18:43:26.193Z,15.40
2023-05-25T18:45:53.211Z,14.77
2023-05-25T18:48:20.513Z,15.80
2023-05-25T18:50:47.576Z,18.52
2023-05-25T18:53:14.446Z,14.82
2023-05-25T18:55:41.432Z,14.00
2023-05-25T18:58:08.566Z,13.55
2023-05-25T19:00:35.858Z,14.77
2023-05-25T19:03:04.206Z,16.80
2023-05-25T19:05:31.834Z,18.10
2023-05-25T19:08:00.134Z,13.85
2023-05-25T19:10:27.563Z,12.38
2023-05-25T19:12:55.704Z,13.43
2023-05-25T19:15:22.898Z,14.68
2023-05-25T19:17:49.839Z,12.55
2023-05-25T19:20:17.061Z,12.73
2023-05-25T19:22:44.451Z,12.85
2023-05-25T19:25:14.350Z,13.85
2023-05-25T19:27:41.223Z,12.90
2023-05-25T19:30:08.540Z,13.93
2023-05-25T19:32:37.633Z,17.20
2023-05-25T19:35:04.850Z,13.60
2023-05-25T19:37:31.807Z,13.45
2023-05-25T19:39:59.811Z,13.00
2023-05-25T19:42:29.130Z,15.15
2023-05-25T19:44:57.485Z,13.75
2023-05-25T19:47:27.165Z,14.88
2023-05-25T19:49:54.187Z,14.13
2023-05-25T19:52:21.129Z,14.52
2023-05-25T19:54:51.219Z,14.60
2023-05-25T19:57:21.681Z,13.57
2023-05-25T19:59:50.951Z,12.60
2023-05-25T20:02:18.107Z,16.90
2023-05-25T20:04:45.673Z,16.02
2023-05-25T20:07:13.606Z,13.48
2023-05-25T20:09:43.810Z,13.70
2023-05-25T20:12:11.481Z,13.65
2023-05-25T20:14:38.399Z,14.38
2023-05-25T20:17:06.628Z,12.95
2023-05-25T20:19:33.715Z,13.15
2023-05-25T20:22:04.479Z,15.27
2023-05-25T20:24:33.277Z,16.83
2023-05-25T20:27:01.688Z,13.88
2023-05-25T20:29:28.591Z,13.27
2023-05-25T20:31:56.815Z,15.77
2023-05-25T20:34:23.866Z,13.25
2023-05-25T20:36:51.157Z,11.98
2023-05-25T20:39:18.063Z,14.50
2023-05-25T20:41:44.977Z,12.95
2023-05-25T20:44:11.854Z,12.68
2023-05-25T20:46:38.814Z,14.75
2023-05-25T20:49:05.813Z,14.10
2023-05-25T20:51:32.829Z,16.70
2023-05-25T20:53:59.713Z,15.38
2023-05-25T20:56:27.366Z,13.82
2023-05-25T20:58:54.289Z,13.15
2023-05-25T21:01:21.309Z,13.40
2023-05-25T21:03:48.659Z,16.67
2023-05-25T21:06:16.104Z,14.45
2023-05-25T21:08:43.087Z,14.10
2023-05-25T21:11:10.099Z,17.45
2023-05-25T21:13:37.506Z,17.60
2023-05-25T21:16:04.561Z,14.35
2023-05-25T21:18:31.672Z,16.30
2023-05-25T21:20:58.540Z,14.93
2023-05-25T21:23:25.701Z,16.52
2023-05-25T21:25:52.500Z,16.30
2023-05-25T21:28:19.305Z,16.45
2023-05-25T21:30:47.265Z,18.90
2023-05-25T21:33:14.169Z,14.52
2023-05-25T21:35:41.072Z,15.18
2023-05-25T21:38:08.788Z,15.18
2023-05-25T21:40:35.644Z,14.10
2023-05-25T21:43:02.520Z,16.60
2023-05-25T21:45:29.462Z,16.23
2023-05-25T21:47:56.538Z,13.27
2023-05-25T21:50:23.482Z,17.27
2023-05-25T21:52:50.345Z,15.90
2023-05-25T21:55:17.253Z,15.82
2023-05-25T21:57:44.273Z,14.93
2023-05-25T22:00:12.861Z,14.73
2023-05-25T22:02:40.330Z,13.13
2023-05-25T22:05:07.579Z,14.18
2023-05-25T22:07:34.488Z,13.98
2023-05-25T22:10:01.403Z,16.52
2023-05-25T22:12:28.389Z,11.68
2023-05-25T22:14:55.288Z,11.60
2023-05-25T22:17:22.372Z,13.77
2023-05-25T22:19:59.110Z,10.82
2023-05-25T22:22:34.067Z,12.80
2023-05-25T22:25:01.208Z,14.60
2023-05-25T22:27:28.109Z,11.32
2023-05-25T22:29:55.286Z,12.43
2023-05-25T22:32:22.353Z,14.45
2023-05-25T22:34:49.489Z,11.35
2023-05-25T22:37:17.506Z,13.02
2023-05-25T22:39:44.850Z,11.55
2023-05-25T22:42:11.808Z,13.32
2023-05-25T22:44:38.792Z,11.45
2023-05-25T22:47:06.472Z,14.18
2023-05-25T22:49:42.355Z,13.77
2023-05-25T22:52:11.300Z,13.85
2023-05-25T22:54:38.334Z,11.05
2023-05-25T22:57:06.537Z,10.88
2023-05-25T22:59:33.462Z,19.45
2023-05-25T23:02:00.650Z,13.65
2023-05-25T23:04:27.833Z,16.30
2023-05-25T23:06:54.822Z,15.52
2023-05-25T23:09:21.678Z,14.32
2023-05-25T23:11:49.829Z,15.80
2023-05-25T23:14:16.758Z,13.73
2023-05-25T23:16:44.466Z,15.70
2023-05-25T23:19:11.460Z,17.10
2023-05-25T23:21:39.133Z,14.27
2023-05-25T23:24:07.530Z,16.70
2023-05-25T23:26:34.693Z,17.08
2023-05-25T23:29:01.693Z,15.40
2023-05-25T23:31:29.242Z,14.70
2023-05-25T23:33:56.121Z,13.27
2023-05-25T23:36:26.143Z,15.57
2023-05-25T23:38:54.650Z,19.42
2023-05-25T23:41:22.235Z,17.50
2023-05-25T23:43:49.176Z,14.98
2023-05-25T23:46:17.453Z,14.32
2023-05-25T23:48:45.699Z,14.45
2023-05-25T23:51:12.639Z,14.27
2023-05-25T23:53:39.546Z,14.85
2023-05-25T23:56:06.950Z,14.25
2023-05-25T23:58:33.968Z,15.35
